CDT,Max TemperatureF,Mean TemperatureF,Min TemperatureF,Max Dew PointF,MeanDew PointF,Min DewpointF,Max Humidity, Mean Humidity, Min Humidity, Max Sea Level PressureIn, Mean Sea Level PressureIn, Min Sea Level PressureIn, Max VisibilityMiles, Mean VisibilityMiles, Min VisibilityMiles, Max Wind SpeedMPH, Mean Wind SpeedMPH, Max Gust SpeedMPH,PrecipitationIn, CloudCover, Events, WindDirDegrees
2013-10-1,84,62,41,37,32,28,70,38,13,30.12,30.08,30.04,10,10,10,22,7,29,0.00,0,,328
2013-10-2,87,66,44,39,34,30,61,36,16,30.14,30.08,30.03,10,10,10,18,5,23,0.00,0,,304
2013-10-3,87,69,51,54,45,37,72,45,24,30.09,30.03,29.97,10,10,10,23,7,30,0.00,3,,215
2013-10-4,87,69,51,54,42,28,88,46,13,30.09,30.04,30.00,10,10,10,17,5,22,0.00,0,,320
2013-10-5,71,60,50,36,31,21,58,34,23,30.25,30.17,30.07,10,10,10,22,10,24,0.00,0,,15
2013-10-6,69,53,37,30,25,19,65,36,17,30.35,30.29,30.25,10,10,10,13,6,18,0.00,0,,16
2013-10-7,75,54,33,27,19,12,60,30,11,30.35,30.29,30.22,10,10,10,13,6,21,0.00,0,,89
2013-10-8,80,58,35,37,28,16,56,33,17,30.23,30.14,30.05,10,10,10,15,7,22,0.00,0,,179
2013-10-9,84,64,44,45,34,28,58,37,13,30.13,30.07,30.02,10,10,10,18,7,24,0.00,0,,162
2013-10-10,84,64,44,46,39,28,82,45,17,30.09,30.03,29.95,10,10,10,29,8,32,0.00,0,,198
2013-10-11,80,61,42,37,32,27,66,36,17,30.13,30.06,30.01,10,10,6,16,5,24,0.00,0,,346
2013-10-12,80,63,46,52,42,30,68,47,30,30.19,30.13,30.08,10,10,10,17,8,21,0.00,1,,32
2013-10-13,71,64,57,57,56,50,94,73,60,30.26,30.20,30.16,10,10,10,14,3,17,0.00,2,,114
2013-10-14,78,68,59,61,57,46,100,77,38,30.22,30.16,30.08,10,10,10,16,5,20,0.01,6,,192
2013-10-15,60,54,48,55,54,46,100,93,77,30.19,30.13,30.06,10,10,2,13,4,,0.51,7,,49
2013-10-16,69,58,48,55,50,46,100,87,56,30.22,30.16,30.11,10,10,10,13,7,,0.00,6,,47
2013-10-17,71,60,50,55,51,48,100,81,43,30.21,30.13,30.03,10,7,0,12,4,,0.00,6,,143
2013-10-18,73,58,44,57,39,25,100,62,16,30.21,30.07,30.03,10,10,8,26,6,31,0.00,1,,327
2013-10-19,69,54,39,46,40,34,93,67,35,30.29,30.21,30.14,10,10,10,23,11,29,0.00,2,,55
2013-10-20,75,56,37,50,37,28,93,61,19,30.15,30.07,29.98,10,10,10,17,6,23,0.00,0,,312
2013-10-21,66,50,35,37,33,27,87,53,32,30.25,30.13,30.05,10,10,10,16,7,17,0.00,0,,16
2013-10-22,69,52,35,43,35,30,100,59,23,30.33,30.27,30.21,10,10,10,10,6,,0.00,0,,24
2013-10-23,71,52,33,37,32,27,81,51,22,30.29,30.24,30.18,10,10,10,12,6,16,0.00,0,,174
2013-10-24,75,56,37,37,36,32,81,50,24,30.30,30.24,30.19,10,10,10,13,6,,0.00,0,,88
2013-10-25,69,54,39,46,38,34,82,59,28,30.33,30.27,30.22,10,10,10,16,6,24,0.00,1,,51
2013-10-26,77,58,39,48,43,37,93,64,28,30.28,30.24,30.20,10,10,10,20,7,22,0.00,0,,9
2013-10-27,73,58,42,46,42,37,82,56,33,30.28,30.19,30.09,10,10,10,15,9,20,0.00,0,,74
2013-10-28,78,60,42,54,37,25,94,56,14,30.13,30.08,30.03,10,10,10,18,6,22,0.00,0,,263
2013-10-29,78,61,44,54,41,30,88,57,23,30.18,30.11,30.06,10,10,10,15,5,20,0.00,1,,217
2013-10-30,69,61,53,55,50,45,100,73,40,30.15,30.07,30.00,10,10,10,20,5,24,0.00,4,,176
2013-10-31,66,54,41,48,33,21,82,46,23,30.16,30.09,30.03,10,10,10,24,10,30,0.00,0,,261